createdAt,value
2018-09-02T00:00:30.757Z,913.12
2018-09-02T00:01:30.709Z,913.11
2018-09-02T00:02:30.692Z,913.14
2018-09-02T00:03:30.657Z,913.15
2018-09-02T00:04:30.638Z,913.18
2018-09-02T00:05:30.583Z,913.18
2018-09-02T00:06:30.650Z,913.13
2018-09-02T00:07:30.530Z,913.15
2018-09-02T00:08:30.505Z,913.17
2018-09-02T00:09:30.576Z,913.17
2018-09-02T00:10:30.443Z,913.16
2018-09-02T00:11:30.420Z,913.14
2018-09-02T00:12:30.435Z,913.16
2018-09-02T00:13:30.361Z,913.18
2018-09-02T00:14:30.328Z,913.16
2018-09-02T00:15:30.368Z,913.12
2018-09-02T00:16:30.251Z,913.17
2018-09-02T00:17:30.236Z,913.14
2018-09-02T00:18:30.204Z,913.14
2018-09-02T00:19:30.168Z,913.14
2018-09-02T00:20:30.677Z,913.21
2018-09-02T00:21:30.120Z,913.22
2018-09-02T00:22:30.086Z,913.24
2018-09-02T00:23:30.060Z,913.22
2018-09-02T00:24:30.233Z,913.23
2018-09-02T00:25:29.995Z,913.23
2018-09-02T00:26:30.323Z,913.25
2018-09-02T00:27:29.944Z,913.24
2018-09-02T00:28:29.898Z,913.25
2018-09-02T00:29:29.868Z,913.24
2018-09-02T00:30:29.850Z,913.25
2018-09-02T00:31:29.841Z,913.25
2018-09-02T00:32:29.796Z,913.26
2018-09-02T00:33:29.744Z,913.27
2018-09-02T00:34:29.741Z,913.29
2018-09-02T00:35:29.694Z,913.29
2018-09-02T00:36:29.709Z,913.30
2018-09-02T00:37:29.618Z,913.34
2018-09-02T00:38:29.662Z,913.38
2018-09-02T00:39:29.563Z,913.34
2018-09-02T00:40:29.537Z,913.38
2018-09-02T00:41:29.507Z,913.42
2018-09-02T00:42:29.485Z,913.40
2018-09-02T00:43:29.689Z,913.42
2018-09-02T00:44:29.420Z,913.39
2018-09-02T00:45:29.387Z,913.44
2018-09-02T00:46:29.377Z,913.42
2018-09-02T00:47:29.342Z,913.43
2018-09-02T00:48:30.600Z,913.47
2018-09-02T00:49:29.682Z,913.51
2018-09-02T00:50:29.235Z,913.60
2018-09-02T00:51:29.207Z,913.58
2018-09-02T00:52:29.227Z,913.64
2018-09-02T00:53:29.147Z,913.62
2018-09-02T00:54:29.125Z,913.62
2018-09-02T00:55:29.240Z,913.59
2018-09-02T00:56:29.075Z,913.60
2018-09-02T00:57:29.035Z,913.60
2018-09-02T00:58:28.998Z,913.63
2018-09-02T00:59:28.969Z,913.65
2018-09-02T01:00:28.946Z,913.71
2018-09-02T01:01:28.903Z,913.70
2018-09-02T01:02:28.869Z,913.73
2018-09-02T01:03:28.830Z,913.75
2018-09-02T01:04:28.820Z,913.76
2018-09-02T01:05:28.789Z,913.77
2018-09-02T01:06:28.826Z,913.74
2018-09-02T01:07:28.715Z,913.73
2018-09-02T01:08:28.698Z,913.75
2018-09-02T01:09:28.652Z,913.73
2018-09-02T01:10:28.636Z,913.76
2018-09-02T01:11:28.860Z,913.70
2018-09-02T01:12:28.561Z,913.72
2018-09-02T01:13:28.543Z,913.73
2018-09-02T01:14:28.495Z,913.75
2018-09-02T01:15:28.484Z,913.78
2018-09-02T01:16:28.436Z,913.78
2018-09-02T01:17:28.430Z,913.80
2018-09-02T01:18:28.373Z,913.81
2018-09-02T01:19:28.349Z,913.80
2018-09-02T01:20:28.328Z,913.85
2018-09-02T01:21:28.290Z,913.85
2018-09-02T01:22:28.464Z,913.81
2018-09-02T01:23:28.222Z,913.83
2018-09-02T01:24:28.454Z,913.86
2018-09-02T01:25:28.157Z,913.86
2018-09-02T01:26:28.150Z,913.85
2018-09-02T01:27:28.118Z,913.81
2018-09-02T01:28:28.169Z,913.84
2018-09-02T01:29:28.043Z,913.80
2018-09-02T01:30:28.018Z,913.82
2018-09-02T01:31:27.997Z,913.83
2018-09-02T01:32:27.964Z,913.88
2018-09-02T01:33:27.913Z,913.85
2018-09-02T01:34:27.975Z,913.82
2018-09-02T01:35:27.852Z,913.81
2018-09-02T01:36:27.824Z,913.84
2018-09-02T01:37:27.791Z,913.84
2018-09-02T01:38:27.766Z,913.85
2018-09-02T01:39:27.731Z,913.86
2018-09-02T01:40:27.703Z,913.83
2018-09-02T01:41:27.734Z,913.83
2018-09-02T01:42:27.634Z,913.89
2018-09-02T01:43:27.607Z,913.85
2018-09-02T01:44:27.565Z,913.86
2018-09-02T01:45:27.538Z,913.81
2018-09-02T01:46:27.513Z,913.82
2018-09-02T01:47:27.485Z,913.83
2018-09-02T01:48:27.448Z,913.75
2018-09-02T01:49:27.432Z,913.80
2018-09-02T01:50:27.440Z,913.77
2018-09-02T01:51:27.356Z,913.76
2018-09-02T01:52:27.333Z,913.77
2018-09-02T01:53:27.355Z,913.76
2018-09-02T01:54:27.272Z,913.75
2018-09-02T01:55:27.232Z,913.77
2018-09-02T01:56:27.220Z,913.78
2018-09-02T01:57:27.161Z,913.77
2018-09-02T01:58:27.148Z,913.79
2018-09-02T01:59:27.119Z,913.80
2018-09-02T02:00:27.096Z,913.81
2018-09-02T02:01:27.098Z,913.82
2018-09-02T02:02:27.014Z,913.83
2018-09-02T02:03:26.982Z,913.80
2018-09-02T02:04:26.954Z,913.80
2018-09-02T02:05:26.932Z,913.83
2018-09-02T02:06:26.886Z,913.81
2018-09-02T02:07:26.877Z,913.82
2018-09-02T02:08:26.839Z,913.83
2018-09-02T02:09:26.811Z,913.83
2018-09-02T02:10:26.783Z,913.80
2018-09-02T02:11:26.749Z,913.81
2018-09-02T02:12:26.718Z,913.82
2018-09-02T02:13:26.683Z,913.79
2018-09-02T02:14:26.648Z,913.84
2018-09-02T02:15:26.621Z,913.80
2018-09-02T02:16:26.739Z,913.82
2018-09-02T02:17:26.547Z,913.84
2018-09-02T02:18:26.525Z,913.81
2018-09-02T02:19:26.489Z,913.75
2018-09-02T02:20:26.469Z,913.80
2018-09-02T02:21:26.428Z,913.78
2018-09-02T02:22:26.407Z,913.77
2018-09-02T02:23:26.359Z,913.77
2018-09-02T02:24:26.327Z,913.78
2018-09-02T02:25:26.305Z,913.75
2018-09-02T02:26:26.266Z,913.75
2018-09-02T02:27:26.501Z,913.75
2018-09-02T02:28:26.212Z,913.75
2018-09-02T02:29:26.177Z,913.76
2018-09-02T02:30:26.140Z,913.76
2018-09-02T02:31:26.116Z,913.72
2018-09-02T02:32:26.095Z,913.77
2018-09-02T02:33:26.054Z,913.75
2018-09-02T02:34:26.029Z,913.75
2018-09-02T02:35:26.000Z,913.76
2018-09-02T02:36:25.964Z,913.77
2018-09-02T02:37:25.933Z,913.79
2018-09-02T02:38:25.908Z,913.79
2018-09-02T02:39:25.874Z,913.77
2018-09-02T02:40:25.839Z,913.79
2018-09-02T02:41:25.801Z,913.78
2018-09-02T02:42:25.772Z,913.78
2018-09-02T02:43:25.734Z,913.79
2018-09-02T02:44:25.710Z,913.80
2018-09-02T02:45:25.679Z,913.80
2018-09-02T02:46:25.644Z,913.81
2018-09-02T02:47:25.625Z,913.78
2018-09-02T02:48:25.575Z,913.79
2018-09-02T02:49:25.705Z,913.78
2018-09-02T02:50:25.520Z,913.80
2018-09-02T02:51:25.497Z,913.77
2018-09-02T02:52:25.466Z,913.73
2018-09-02T02:53:25.440Z,913.77
2018-09-02T02:54:25.392Z,913.73
2018-09-02T02:55:25.666Z,913.72
2018-09-02T02:56:25.333Z,913.73
2018-09-02T02:57:25.292Z,913.73
2018-09-02T02:58:25.268Z,913.73
2018-09-02T02:59:25.238Z,913.74
2018-09-02T03:00:25.197Z,913.74
2018-09-02T03:01:25.517Z,913.72
2018-09-02T03:02:25.141Z,913.70
2018-09-02T03:03:25.101Z,913.73
2018-09-02T03:04:25.076Z,913.72
2018-09-02T03:05:25.046Z,913.76
2018-09-02T03:06:25.021Z,913.72
2018-09-02T03:07:25.140Z,913.71
2018-09-02T03:08:25.015Z,913.69
2018-09-02T03:09:24.907Z,913.68
2018-09-02T03:10:24.872Z,913.66
2018-09-02T03:11:24.851Z,913.66
2018-09-02T03:13:24.786Z,913.64
2018-09-02T03:14:24.755Z,913.62
2018-09-02T03:15:24.731Z,913.60
2018-09-02T03:16:24.683Z,913.58
2018-09-02T03:17:24.652Z,913.56
2018-09-02T03:18:24.627Z,913.55
2018-09-02T03:19:24.603Z,913.48
2018-09-02T03:20:24.558Z,913.52
2018-09-02T03:21:24.526Z,913.49
2018-09-02T03:22:24.507Z,913.44
2018-09-02T03:23:24.472Z,913.45
2018-09-02T03:24:24.443Z,913.43
2018-09-02T03:25:24.408Z,913.44
2018-09-02T03:26:24.385Z,913.38
2018-09-02T03:27:24.351Z,913.40
2018-09-02T03:28:24.507Z,913.37
2018-09-02T03:29:24.283Z,913.41
2018-09-02T03:30:24.252Z,913.38
2018-09-02T03:31:24.221Z,913.37
2018-09-02T03:32:24.213Z,913.37
2018-09-02T03:33:24.149Z,913.35
2018-09-02T03:34:24.228Z,913.32
2018-09-02T03:35:24.085Z,913.33
2018-09-02T03:36:24.058Z,913.29
2018-09-02T03:37:24.079Z,913.28
2018-09-02T03:38:24.005Z,913.27
2018-09-02T03:39:23.976Z,913.23
2018-09-02T03:40:23.941Z,913.23
2018-09-02T03:41:23.905Z,913.24
2018-09-02T03:42:23.883Z,913.23
2018-09-02T03:43:23.840Z,913.23
2018-09-02T03:44:23.811Z,913.24
2018-09-02T03:45:23.776Z,913.22
2018-09-02T03:46:23.752Z,913.22
2018-09-02T03:47:23.715Z,913.23
2018-09-02T03:48:23.688Z,913.24
2018-09-02T03:49:23.657Z,913.22
2018-09-02T03:50:23.618Z,913.24
2018-09-02T03:51:23.601Z,913.24
2018-09-02T03:52:23.562Z,913.22
2018-09-02T03:53:23.539Z,913.18
2018-09-02T03:54:23.491Z,913.20
2018-09-02T03:55:23.873Z,913.22
2018-09-02T03:56:23.438Z,913.22
2018-09-02T03:57:23.404Z,913.18
2018-09-02T03:58:23.437Z,913.17
2018-09-02T03:59:23.348Z,913.20
2018-09-02T04:00:23.325Z,913.19
2018-09-02T04:01:23.281Z,913.19
2018-09-02T04:02:23.230Z,913.20
2018-09-02T04:03:23.207Z,913.19
2018-09-02T04:04:23.172Z,913.19
2018-09-02T04:05:23.134Z,913.21
2018-09-02T04:06:23.120Z,913.17
2018-09-02T04:07:23.067Z,913.18
2018-09-02T04:08:23.051Z,913.18
2018-09-02T04:09:23.015Z,913.14
2018-09-02T04:10:22.976Z,913.14
2018-09-02T04:11:22.979Z,913.10
2018-09-02T04:12:22.966Z,913.04
2018-09-02T04:13:22.886Z,913.08
2018-09-02T04:14:22.890Z,913.04
2018-09-02T04:15:22.834Z,913.04
2018-09-02T04:16:22.800Z,913.04
2018-09-02T04:18:22.726Z,913.04
2018-09-02T04:19:22.698Z,913.03
2018-09-02T04:20:22.672Z,913.03
2018-09-02T04:21:22.641Z,913.04
2018-09-02T04:22:22.810Z,912.98
2018-09-02T04:23:22.573Z,913.00
2018-09-02T04:24:22.539Z,913.01
2018-09-02T04:25:22.507Z,913.01
2018-09-02T04:26:22.480Z,913.01
2018-09-02T04:27:22.446Z,913.02
2018-09-02T04:28:22.413Z,912.98
2018-09-02T04:29:22.380Z,912.99
2018-09-02T04:30:22.356Z,912.95
2018-09-02T04:31:22.317Z,912.97
2018-09-02T04:32:22.370Z,912.95
2018-09-02T04:33:22.245Z,912.94
2018-09-02T04:34:22.222Z,912.93
2018-09-02T04:35:22.194Z,912.93
2018-09-02T04:36:22.156Z,912.92
2018-09-02T04:37:22.133Z,912.89
2018-09-02T04:38:22.084Z,912.87
2018-09-02T04:39:22.069Z,912.84
2018-09-02T04:40:22.026Z,912.88
2018-09-02T04:41:22.001Z,912.84
2018-09-02T04:42:21.965Z,912.87
2018-09-02T04:43:21.920Z,912.89
2018-09-02T04:44:21.890Z,912.83
2018-09-02T04:45:21.904Z,912.82
2018-09-02T04:46:21.831Z,912.84
2018-09-02T04:47:21.794Z,912.82
2018-09-02T04:48:21.820Z,912.82
2018-09-02T04:49:21.736Z,912.76
2018-09-02T04:50:21.719Z,912.79
2018-09-02T04:51:21.663Z,912.80
2018-09-02T04:52:21.646Z,912.81
2018-09-02T04:53:21.607Z,912.77
2018-09-02T04:54:21.577Z,912.76
2018-09-02T04:55:21.550Z,912.81
2018-09-02T04:56:21.513Z,912.83
2018-09-02T04:57:21.520Z,912.82
2018-09-02T04:58:21.437Z,912.84
2018-09-02T04:59:21.435Z,912.78
2018-09-02T05:00:21.423Z,912.82
2018-09-02T05:01:21.352Z,912.81
2018-09-02T05:02:21.312Z,912.79
2018-09-02T05:03:21.444Z,912.80
2018-09-02T05:04:21.245Z,912.83
2018-09-02T05:05:21.223Z,912.82
2018-09-02T05:06:21.195Z,912.79
2018-09-02T05:07:21.159Z,912.80
2018-09-02T05:08:21.121Z,912.83
2018-09-02T05:09:21.106Z,912.80
2018-09-02T05:10:21.089Z,912.81
2018-09-02T05:11:21.028Z,912.82
2018-09-02T05:12:21.009Z,912.86
2018-09-02T05:13:20.963Z,912.83
2018-09-02T05:14:20.943Z,912.81
2018-09-02T05:15:20.912Z,912.84
2018-09-02T05:16:20.866Z,912.80
2018-09-02T05:17:20.841Z,912.82
2018-09-02T05:18:20.802Z,912.77
2018-09-02T05:19:20.775Z,912.77
2018-09-02T05:20:20.731Z,912.75
2018-09-02T05:21:20.703Z,912.78
2018-09-02T05:22:20.691Z,912.79
2018-09-02T05:23:20.635Z,912.75
2018-09-02T05:24:20.617Z,912.77
2018-09-02T05:25:20.832Z,912.73
2018-09-02T05:26:20.561Z,912.74
2018-09-02T05:27:20.517Z,912.74
2018-09-02T05:28:20.489Z,912.78
2018-09-02T05:29:20.445Z,912.75
2018-09-02T05:30:20.413Z,912.74
2018-09-02T05:31:20.386Z,912.67
2018-09-02T05:32:20.354Z,912.69
2018-09-02T05:33:20.313Z,912.69
2018-09-02T05:34:20.293Z,912.67
2018-09-02T05:35:20.262Z,912.64
2018-09-02T05:36:20.279Z,912.66
2018-09-02T05:37:20.200Z,912.64
2018-09-02T05:38:20.166Z,912.62
2018-09-02T05:39:20.142Z,912.63
2018-09-02T05:40:20.104Z,912.63
2018-09-02T05:41:20.104Z,912.63
2018-09-02T05:42:20.030Z,912.63
2018-09-02T05:43:19.997Z,912.67
2018-09-02T05:44:19.967Z,912.67
2018-09-02T05:45:19.954Z,912.65
2018-09-02T05:46:19.900Z,912.69
2018-09-02T05:47:19.872Z,912.69
2018-09-02T05:48:19.830Z,912.68
2018-09-02T05:49:19.793Z,912.71
2018-09-02T05:50:19.799Z,912.69
2018-09-02T05:51:19.743Z,912.68
2018-09-02T05:52:19.701Z,912.68
2018-09-02T05:53:19.688Z,912.67
2018-09-02T05:54:19.651Z,912.71
2018-09-02T05:55:19.628Z,912.67
2018-09-02T05:56:19.615Z,912.66
2018-09-02T05:57:19.696Z,912.65
2018-09-02T05:58:19.512Z,912.63
2018-09-02T05:59:19.479Z,912.60
2018-09-02T06:00:19.458Z,912.61
2018-09-02T06:01:19.421Z,912.59
2018-09-02T06:02:19.375Z,912.58
2018-09-02T06:03:19.769Z,912.60
2018-09-02T06:04:19.322Z,912.56
2018-09-02T06:05:19.278Z,912.57
2018-09-02T06:06:19.262Z,912.57
2018-09-02T06:07:19.222Z,912.53
2018-09-02T06:08:19.187Z,912.57
2018-09-02T06:09:19.357Z,912.57
2018-09-02T06:10:19.124Z,912.54
2018-09-02T06:11:19.097Z,912.54
2018-09-02T06:12:19.065Z,912.58
2018-09-02T06:13:19.033Z,912.54
2018-09-02T06:14:19.005Z,912.58
2018-09-02T06:15:18.962Z,912.56
2018-09-02T06:16:18.937Z,912.55
2018-09-02T06:17:18.938Z,912.53
2018-09-02T06:18:18.863Z,912.56
2018-09-02T06:19:18.838Z,912.52
2018-09-02T06:20:18.806Z,912.49
2018-09-02T06:21:18.771Z,912.54
2018-09-02T06:22:18.746Z,912.49
2018-09-02T06:23:18.700Z,912.52
2018-09-02T06:24:18.677Z,912.49
2018-09-02T06:25:18.643Z,912.51
2018-09-02T06:26:18.618Z,912.49
2018-09-02T06:27:18.578Z,912.50
2018-09-02T06:28:18.539Z,912.53
2018-09-02T06:29:18.504Z,912.52
2018-09-02T06:30:18.573Z,912.54
2018-09-02T06:31:18.455Z,912.49
2018-09-02T06:32:18.418Z,912.53
2018-09-02T06:33:18.383Z,912.56
2018-09-02T06:34:18.351Z,912.50
2018-09-02T06:35:18.322Z,912.53
2018-09-02T06:36:18.561Z,912.52
2018-09-02T06:37:18.262Z,912.49
2018-09-02T06:38:18.239Z,912.49
2018-09-02T06:39:18.215Z,912.45
2018-09-02T06:40:18.156Z,912.50
2018-09-02T06:41:18.117Z,912.47
2018-09-02T06:42:18.239Z,912.46
2018-09-02T06:43:18.055Z,912.45
2018-09-02T06:44:18.014Z,912.46
2018-09-02T06:45:17.989Z,912.51
2018-09-02T06:46:17.949Z,912.50
2018-09-02T06:47:17.920Z,912.53
2018-09-02T06:48:17.912Z,912.51
2018-09-02T06:49:17.858Z,912.55
2018-09-02T06:50:17.828Z,912.51
2018-09-02T06:51:17.791Z,912.52
2018-09-02T06:52:17.769Z,912.50
2018-09-02T06:53:17.731Z,912.47
2018-09-02T06:54:17.695Z,912.47
2018-09-02T06:55:17.651Z,912.47
2018-09-02T06:56:17.637Z,912.48
2018-09-02T06:57:17.603Z,912.48
2018-09-02T06:58:17.971Z,912.46
2018-09-02T06:59:17.528Z,912.43
2018-09-02T07:00:17.500Z,912.43
2018-09-02T07:01:17.466Z,912.44
2018-09-02T07:02:17.434Z,912.44
2018-09-02T07:03:17.391Z,912.40
2018-09-02T07:04:17.560Z,912.40
2018-09-02T07:05:17.342Z,912.43
2018-09-02T07:06:17.307Z,912.39
2018-09-02T07:07:17.277Z,912.38
2018-09-02T07:08:17.257Z,912.37
2018-09-02T07:09:17.197Z,912.40
2018-09-02T07:10:17.175Z,912.36
2018-09-02T07:11:17.139Z,912.40
2018-09-02T07:12:17.105Z,912.39
2018-09-02T07:13:17.065Z,912.41
2018-09-02T07:14:17.106Z,912.40
2018-09-02T07:15:17.013Z,912.39
2018-09-02T07:16:16.967Z,912.42
2018-09-02T07:17:16.947Z,912.39
2018-09-02T07:18:16.914Z,912.36
2018-09-02T07:19:16.896Z,912.40
2018-09-02T07:21:16.811Z,912.38
2018-09-02T07:22:16.772Z,912.41
2018-09-02T07:23:16.735Z,912.45
2018-09-02T07:24:16.764Z,912.41
2018-09-02T07:25:16.684Z,912.47
2018-09-02T07:26:16.647Z,912.46
2018-09-02T07:27:16.630Z,912.51
2018-09-02T07:28:16.573Z,912.51
2018-09-02T07:29:16.545Z,912.50
2018-09-02T07:30:16.510Z,912.47
2018-09-02T07:31:16.510Z,912.55
2018-09-02T07:32:16.448Z,912.52
2018-09-02T07:33:16.424Z,912.55
2018-09-02T07:34:16.378Z,912.51
2018-09-02T07:35:16.344Z,912.49
2018-09-02T07:36:16.312Z,912.53
2018-09-02T07:37:16.279Z,912.53
2018-09-02T07:38:16.256Z,912.57
2018-09-02T07:39:16.210Z,912.56
2018-09-02T07:40:16.189Z,912.57
2018-09-02T07:41:16.160Z,912.53
2018-09-02T07:42:16.119Z,912.56
2018-09-02T07:43:16.096Z,912.56
2018-09-02T07:44:16.132Z,912.52
2018-09-02T07:45:16.014Z,912.56
2018-09-02T07:46:15.985Z,912.55
2018-09-02T07:47:15.956Z,912.57
2018-09-02T07:48:15.926Z,912.60
2018-09-02T07:49:15.942Z,912.56
2018-09-02T07:50:15.883Z,912.59
2018-09-02T07:51:15.832Z,912.57
2018-09-02T07:52:15.790Z,912.63
2018-09-02T07:53:15.766Z,912.62
2018-09-02T07:54:15.733Z,912.60
2018-09-02T07:55:15.702Z,912.61
2018-09-02T07:56:15.663Z,912.62
2018-09-02T07:57:15.640Z,912.63
2018-09-02T07:58:15.595Z,912.62
2018-09-02T07:59:15.562Z,912.64
2018-09-02T08:00:15.555Z,912.63
2018-09-02T08:01:15.498Z,912.68
2018-09-02T08:02:15.882Z,912.66
2018-09-02T08:03:15.435Z,912.67
2018-09-02T08:04:15.405Z,912.71
2018-09-02T08:05:15.371Z,912.71
2018-09-02T08:06:15.343Z,912.75
2018-09-02T08:07:15.304Z,912.75
2018-09-02T08:08:15.619Z,912.75
2018-09-02T08:09:15.240Z,912.71
2018-09-02T08:10:15.206Z,912.75
2018-09-02T08:11:15.165Z,912.77
2018-09-02T08:12:15.155Z,912.73
2018-09-02T08:13:15.095Z,912.76
2018-09-02T08:14:15.072Z,912.79
2018-09-02T08:15:15.040Z,912.75
2018-09-02T08:16:15.003Z,912.73
2018-09-02T08:17:14.974Z,912.75
2018-09-02T08:18:14.941Z,912.80
2018-09-02T08:19:14.912Z,912.78
2018-09-02T08:20:14.873Z,912.78
2018-09-02T08:21:14.839Z,912.78
2018-09-02T08:22:14.809Z,912.75
2018-09-02T08:23:14.777Z,912.81
2018-09-02T08:24:14.741Z,912.81
2018-09-02T08:26:14.666Z,912.80
2018-09-02T08:27:14.640Z,912.81
2018-09-02T08:28:14.605Z,912.82
2018-09-02T08:29:14.562Z,912.81
2018-09-02T08:30:14.727Z,912.85
2018-09-02T08:31:14.503Z,912.88
2018-09-02T08:32:14.471Z,912.89
2018-09-02T08:33:14.428Z,912.89
2018-09-02T08:34:14.403Z,912.91
2018-09-02T08:35:14.368Z,912.91
2018-09-02T08:36:14.342Z,912.97
2018-09-02T08:37:14.335Z,912.97
2018-09-02T08:38:14.262Z,912.97
2018-09-02T08:39:14.294Z,912.97
2018-09-02T08:40:14.197Z,912.96
2018-09-02T08:41:14.204Z,912.98
2018-09-02T08:42:14.136Z,913.00
2018-09-02T08:43:14.116Z,913.02
2018-09-02T08:44:14.107Z,913.05
2018-09-02T08:45:14.038Z,913.04
2018-09-02T08:46:14.000Z,913.02
2018-09-02T08:47:13.979Z,913.03
2018-09-02T08:48:13.929Z,913.04
2018-09-02T08:49:13.904Z,913.08
2018-09-02T08:50:13.867Z,913.05
2018-09-02T08:51:13.833Z,913.07
2018-09-02T08:52:13.803Z,913.06
2018-09-02T08:53:13.784Z,913.05
2018-09-02T08:54:13.729Z,913.09
2018-09-02T08:55:13.710Z,913.12
2018-09-02T08:56:13.691Z,913.15
2018-09-02T08:57:13.641Z,913.14
2018-09-02T08:58:13.604Z,913.14
2018-09-02T08:59:13.576Z,913.14
2018-09-02T09:00:13.541Z,913.15
2018-09-02T09:01:13.506Z,913.14
2018-09-02T09:02:13.511Z,913.16
2018-09-02T09:03:13.432Z,913.15
2018-09-02T09:04:13.407Z,913.14
2018-09-02T09:05:13.368Z,913.17
2018-09-02T09:06:13.334Z,913.22
2018-09-02T09:07:13.304Z,913.22
2018-09-02T09:08:13.459Z,913.24
2018-09-02T09:09:13.361Z,913.23
2018-09-02T09:10:13.222Z,913.23
2018-09-02T09:11:13.167Z,913.24
2018-09-02T09:12:13.131Z,913.26
2018-09-02T09:13:13.096Z,913.25
2018-09-02T09:14:13.092Z,913.25
2018-09-02T09:15:13.045Z,913.26
2018-09-02T09:16:13.009Z,913.26
2018-09-02T09:17:13.038Z,913.25
2018-09-02T09:18:12.946Z,913.28
2018-09-02T09:19:12.994Z,913.23
2018-09-02T09:20:12.872Z,913.25
2018-09-02T09:21:12.838Z,913.22
2018-09-02T09:22:12.845Z,913.23
2018-09-02T09:23:12.771Z,913.23
2018-09-02T09:24:12.741Z,913.17
2018-09-02T09:25:12.747Z,913.18
2018-09-02T09:26:12.687Z,913.18
2018-09-02T09:27:12.645Z,913.17
2018-09-02T09:28:12.612Z,913.15
2018-09-02T09:29:12.584Z,913.17
2018-09-02T09:30:12.544Z,913.14
2018-09-02T09:31:12.504Z,913.16
2018-09-02T09:32:12.533Z,913.12
2018-09-02T09:33:12.703Z,913.18
2018-09-02T09:34:12.409Z,913.13
2018-09-02T09:35:12.381Z,913.15
2018-09-02T09:36:12.347Z,913.15
2018-09-02T09:37:12.313Z,913.14
2018-09-02T09:38:12.270Z,913.14
2018-09-02T09:39:12.399Z,913.19
2018-09-02T09:40:12.210Z,913.10
2018-09-02T09:41:12.189Z,913.15
2018-09-02T09:42:12.157Z,913.15
2018-09-02T09:43:12.115Z,913.13
2018-09-02T09:44:12.072Z,913.11
2018-09-02T09:45:12.038Z,913.10
2018-09-02T09:46:12.056Z,913.14
2018-09-02T09:47:11.981Z,913.14
2018-09-02T09:48:11.948Z,913.15
2018-09-02T09:49:11.903Z,913.17
2018-09-02T09:50:11.877Z,913.15
2018-09-02T09:51:11.854Z,913.23
2018-09-02T09:52:11.805Z,913.20
2018-09-02T09:53:11.776Z,913.26
2018-09-02T09:54:11.748Z,913.20
2018-09-02T09:55:11.713Z,913.24
2018-09-02T09:56:11.679Z,913.25
2018-09-02T09:57:11.645Z,913.29
2018-09-02T09:58:11.604Z,913.29
2018-09-02T09:59:11.574Z,913.27
2018-09-02T10:00:11.896Z,913.27
2018-09-02T10:01:11.511Z,913.26
2018-09-02T10:02:11.470Z,913.28
2018-09-02T10:03:11.451Z,913.30
2018-09-02T10:04:11.410Z,913.30
2018-09-02T10:05:11.365Z,913.37
2018-09-02T10:06:11.342Z,913.37
2018-09-02T10:07:11.301Z,913.32
2018-09-02T10:08:11.277Z,913.36
2018-09-02T10:09:11.233Z,913.35
2018-09-02T10:10:11.211Z,913.37
2018-09-02T10:11:11.170Z,913.36
2018-09-02T10:12:11.149Z,913.38
2018-09-02T10:13:11.181Z,913.37
2018-09-02T10:14:11.082Z,913.38
2018-09-02T10:15:11.046Z,913.39
2018-09-02T10:16:11.015Z,913.36
2018-09-02T10:17:10.989Z,913.42
2018-09-02T10:18:11.076Z,913.43
2018-09-02T10:19:10.980Z,913.45
2018-09-02T10:20:10.884Z,913.43
2018-09-02T10:21:10.870Z,913.44
2018-09-02T10:22:10.816Z,913.43
2018-09-02T10:23:10.778Z,913.46
2018-09-02T10:24:10.745Z,913.49
2018-09-02T10:25:10.724Z,913.43
2018-09-02T10:26:10.684Z,913.46
2018-09-02T10:27:10.649Z,913.49
2018-09-02T10:28:10.648Z,913.50
2018-09-02T10:29:10.594Z,913.46
2018-09-02T10:30:10.564Z,913.46
2018-09-02T10:31:10.525Z,913.46
2018-09-02T10:32:10.493Z,913.53
2018-09-02T10:33:10.458Z,913.48
2018-09-02T10:34:10.421Z,913.47
2018-09-02T10:35:10.394Z,913.49
2018-09-02T10:36:10.382Z,913.51
2018-09-02T10:37:10.336Z,913.48
2018-09-02T10:38:10.320Z,913.48
2018-09-02T10:39:10.273Z,913.49
2018-09-02T10:40:10.230Z,913.49
2018-09-02T10:41:10.230Z,913.48
2018-09-02T10:42:10.177Z,913.49
2018-09-02T10:43:10.142Z,913.52
2018-09-02T10:44:10.111Z,913.55
2018-09-02T10:45:10.085Z,913.54
2018-09-02T10:46:10.078Z,913.52
2018-09-02T10:47:10.016Z,913.56
2018-09-02T10:48:10.028Z,913.58
2018-09-02T10:49:09.956Z,913.66
2018-09-02T10:50:09.932Z,913.62
2018-09-02T10:51:09.886Z,913.64
2018-09-02T10:53:09.822Z,913.63
2018-09-02T10:54:09.792Z,913.65
2018-09-02T10:55:09.777Z,913.60
2018-09-02T10:56:09.740Z,913.63
2018-09-02T10:57:10.054Z,913.64
2018-09-02T10:58:09.674Z,913.63
2018-09-02T10:59:09.933Z,913.67
2018-09-02T11:00:09.605Z,913.65
2018-09-02T11:01:09.579Z,913.66
2018-09-02T11:02:09.539Z,913.64
2018-09-02T11:03:09.509Z,913.65
2018-09-02T11:04:09.489Z,913.71
2018-09-02T11:05:09.475Z,913.73
2018-09-02T11:06:09.424Z,913.72
2018-09-02T11:07:09.390Z,913.67
2018-09-02T11:08:09.357Z,913.66
2018-09-02T11:09:09.332Z,913.69
2018-09-02T11:10:09.304Z,913.72
2018-09-02T11:11:09.268Z,913.72
2018-09-02T11:12:09.239Z,913.69
2018-09-02T11:13:09.295Z,913.68
2018-09-02T11:14:09.168Z,913.73
2018-09-02T11:15:09.285Z,913.70
2018-09-02T11:16:09.166Z,913.70
2018-09-02T11:17:09.083Z,913.71
2018-09-02T11:18:09.039Z,913.68
2018-09-02T11:19:09.017Z,913.72
2018-09-02T11:20:08.980Z,913.69
2018-09-02T11:21:08.950Z,913.68
2018-09-02T11:22:08.920Z,913.69
2018-09-02T11:23:08.896Z,913.68
2018-09-02T11:24:08.855Z,913.69
2018-09-02T11:25:08.823Z,913.69
2018-09-02T11:26:08.798Z,913.66
2018-09-02T11:27:08.771Z,913.65
2018-09-02T11:28:08.745Z,913.65
2018-09-02T11:29:08.699Z,913.66
2018-09-02T11:30:08.683Z,913.66
2018-09-02T11:31:08.915Z,913.64
2018-09-02T11:32:08.771Z,913.69
2018-09-02T11:33:08.584Z,913.65
2018-09-02T11:34:08.667Z,913.64
2018-09-02T11:35:08.517Z,913.70
2018-09-02T11:36:08.499Z,913.68
2018-09-02T11:37:08.465Z,913.64
2018-09-02T11:38:08.426Z,913.69
2018-09-02T11:39:08.407Z,913.71
2018-09-02T11:40:08.391Z,913.70
2018-09-02T11:41:08.329Z,913.71
2018-09-02T11:42:08.308Z,913.73
2018-09-02T11:43:08.315Z,913.72
2018-09-02T11:44:08.237Z,913.73
2018-09-02T11:45:08.256Z,913.72
2018-09-02T11:46:08.192Z,913.75
2018-09-02T11:47:08.157Z,913.77
2018-09-02T11:48:08.131Z,913.76
2018-09-02T11:49:08.345Z,913.81
2018-09-02T11:50:08.069Z,913.75
2018-09-02T11:51:08.025Z,913.78
2018-09-02T11:52:08.033Z,913.80
2018-09-02T11:53:07.976Z,913.81
2018-09-02T11:54:08.043Z,913.79
2018-09-02T11:55:07.923Z,914.23
2018-09-02T11:56:07.885Z,914.28
2018-09-02T11:57:07.853Z,913.87
2018-09-02T11:58:07.825Z,913.92
2018-09-02T11:59:07.793Z,913.80
2018-09-02T12:00:07.759Z,913.85
2018-09-02T12:01:07.737Z,913.87
2018-09-02T12:02:07.702Z,913.88
2018-09-02T12:03:07.679Z,913.76
2018-09-02T12:04:07.846Z,913.82
2018-09-02T12:05:07.768Z,913.90
2018-09-02T12:06:07.595Z,913.88
2018-09-02T12:07:07.556Z,914.23
2018-09-02T12:08:07.530Z,913.85
2018-09-02T12:09:07.503Z,913.87
2018-09-02T12:10:07.464Z,913.86
2018-09-02T12:11:07.601Z,913.86
2018-09-02T12:12:07.448Z,913.88
2018-09-02T12:13:07.392Z,913.89
2018-09-02T12:14:07.348Z,913.86
2018-09-02T12:15:07.320Z,913.84
2018-09-02T12:16:07.307Z,913.83
2018-09-02T12:17:07.307Z,913.83
2018-09-02T12:18:07.252Z,913.80
2018-09-02T12:19:07.230Z,913.81
2018-09-02T12:20:07.189Z,913.83
2018-09-02T12:21:07.179Z,913.81
2018-09-02T12:22:07.143Z,914.32
2018-09-02T12:23:07.117Z,913.79
2018-09-02T12:24:07.073Z,913.80
2018-09-02T12:25:07.052Z,913.74
2018-09-02T12:26:07.029Z,913.80
2018-09-02T12:27:07.001Z,913.75
2018-09-02T12:28:06.962Z,913.79
2018-09-02T12:29:06.943Z,913.78
2018-09-02T12:30:06.932Z,913.75
2018-09-02T12:31:06.888Z,913.74
2018-09-02T12:32:06.882Z,913.76
2018-09-02T12:33:06.830Z,913.78